sensor_id;sensor_type;location;lat;lon;timestamp;P1;durP1;ratioP1;P2;durP2;ratioP2
19384;SDS011;9828;54.122;17.974;2023-08-12T00:00:00;9.20;;;5.25;;
19384;SDS011;9828;54.122;17.974;2023-08-12T00:05:28;10.02;;;6.57;;
19384;SDS011;9828;54.122;17.974;2023-08-12T00:10:50;10.38;;;5.85;;
19384;SDS011;9828;54.122;17.974;2023-08-12T00:16:12;12.05;;;6.53;;
19384;SDS011;9828;54.122;17.974;2023-08-12T00:21:33;11.85;;;5.53;;
19384;SDS011;9828;54.122;17.974;2023-08-12T00:26:54;10.25;;;5.85;;
19384;SDS011;9828;54.122;17.974;2023-08-12T00:32:16;10.90;;;6.20;;
19384;SDS011;9828;54.122;17.974;2023-08-12T00:37:38;10.18;;;6.78;;
19384;SDS011;9828;54.122;17.974;2023-08-12T00:42:59;10.57;;;5.57;;
19384;SDS011;9828;54.122;17.974;2023-08-12T00:48:21;10.57;;;5.90;;
19384;SDS011;9828;54.122;17.974;2023-08-12T00:53:44;11.75;;;5.93;;
19384;SDS011;9828;54.122;17.974;2023-08-12T00:59:07;10.20;;;6.35;;
19384;SDS011;9828;54.122;17.974;2023-08-12T01:04:30;11.48;;;6.25;;
19384;SDS011;9828;54.122;17.974;2023-08-12T01:09:51;12.18;;;6.97;;
19384;SDS011;9828;54.122;17.974;2023-08-12T01:15:14;9.32;;;6.28;;
19384;SDS011;9828;54.122;17.974;2023-08-12T01:20:37;12.40;;;5.88;;
19384;SDS011;9828;54.122;17.974;2023-08-12T01:25:59;15.32;;;6.35;;
19384;SDS011;9828;54.122;17.974;2023-08-12T01:31:28;10.60;;;6.63;;
19384;SDS011;9828;54.122;17.974;2023-08-12T01:36:58;17.70;;;7.45;;
19384;SDS011;9828;54.122;17.974;2023-08-12T01:42:23;23.85;;;7.70;;
19384;SDS011;9828;54.122;17.974;2023-08-12T01:47:47;15.25;;;6.90;;
19384;SDS011;9828;54.122;17.974;2023-08-12T01:53:10;12.20;;;6.72;;
19384;SDS011;9828;54.122;17.974;2023-08-12T01:58:32;16.35;;;7.30;;
19384;SDS011;9828;54.122;17.974;2023-08-12T02:03:53;16.05;;;7.43;;
19384;SDS011;9828;54.122;17.974;2023-08-12T02:09:15;19.67;;;7.55;;
19384;SDS011;9828;54.122;17.974;2023-08-12T02:14:36;21.73;;;7.13;;
19384;SDS011;9828;54.122;17.974;2023-08-12T02:19:58;24.15;;;7.88;;
19384;SDS011;9828;54.122;17.974;2023-08-12T02:25:19;19.63;;;7.57;;
19384;SDS011;9828;54.122;17.974;2023-08-12T02:30:44;17.77;;;7.55;;
19384;SDS011;9828;54.122;17.974;2023-08-12T02:36:05;19.73;;;7.43;;
19384;SDS011;9828;54.122;17.974;2023-08-12T02:41:26;19.80;;;7.13;;
19384;SDS011;9828;54.122;17.974;2023-08-12T02:46:48;15.05;;;6.85;;
19384;SDS011;9828;54.122;17.974;2023-08-12T02:52:09;15.63;;;6.82;;
19384;SDS011;9828;54.122;17.974;2023-08-12T02:57:30;19.13;;;7.53;;
19384;SDS011;9828;54.122;17.974;2023-08-12T03:02:51;18.92;;;7.72;;
19384;SDS011;9828;54.122;17.974;2023-08-12T03:08:13;18.15;;;7.78;;
19384;SDS011;9828;54.122;17.974;2023-08-12T03:13:36;20.25;;;7.88;;
19384;SDS011;9828;54.122;17.974;2023-08-12T03:18:57;13.05;;;6.40;;
19384;SDS011;9828;54.122;17.974;2023-08-12T03:24:19;14.77;;;6.30;;
19384;SDS011;9828;54.122;17.974;2023-08-12T03:29:40;16.65;;;7.13;;
19384;SDS011;9828;54.122;17.974;2023-08-12T03:35:02;12.93;;;5.68;;
19384;SDS011;9828;54.122;17.974;2023-08-12T03:40:25;12.90;;;5.85;;
19384;SDS011;9828;54.122;17.974;2023-08-12T03:45:48;10.93;;;5.68;;
19384;SDS011;9828;54.122;17.974;2023-08-12T03:51:12;12.48;;;5.95;;
19384;SDS011;9828;54.122;17.974;2023-08-12T03:56:33;10.57;;;5.43;;
19384;SDS011;9828;54.122;17.974;2023-08-12T04:01:56;9.43;;;4.95;;
19384;SDS011;9828;54.122;17.974;2023-08-12T04:07:18;8.82;;;4.95;;
19384;SDS011;9828;54.122;17.974;2023-08-12T04:12:40;10.23;;;5.13;;
19384;SDS011;9828;54.122;17.974;2023-08-12T04:18:02;8.63;;;4.95;;
19384;SDS011;9828;54.122;17.974;2023-08-12T04:23:24;9.82;;;5.07;;
19384;SDS011;9828;54.122;17.974;2023-08-12T04:28:45;8.93;;;4.80;;
19384;SDS011;9828;54.122;17.974;2023-08-12T04:34:07;8.02;;;4.35;;
19384;SDS011;9828;54.122;17.974;2023-08-12T04:39:29;7.47;;;4.25;;
19384;SDS011;9828;54.122;17.974;2023-08-12T04:44:51;5.53;;;3.78;;
19384;SDS011;9828;54.122;17.974;2023-08-12T04:50:13;5.20;;;3.72;;
19384;SDS011;9828;54.122;17.974;2023-08-12T04:55:36;8.70;;;4.20;;
19384;SDS011;9828;54.122;17.974;2023-08-12T05:00:58;6.35;;;4.10;;
19384;SDS011;9828;54.122;17.974;2023-08-12T05:06:22;5.45;;;3.22;;
19384;SDS011;9828;54.122;17.974;2023-08-12T05:11:43;6.20;;;4.20;;
19384;SDS011;9828;54.122;17.974;2023-08-12T05:17:06;7.00;;;3.60;;
19384;SDS011;9828;54.122;17.974;2023-08-12T05:22:29;6.70;;;3.78;;
19384;SDS011;9828;54.122;17.974;2023-08-12T05:27:50;5.50;;;3.70;;
19384;SDS011;9828;54.122;17.974;2023-08-12T05:33:11;8.52;;;3.50;;
19384;SDS011;9828;54.122;17.974;2023-08-12T05:38:33;6.03;;;3.20;;
19384;SDS011;9828;54.122;17.974;2023-08-12T05:43:54;5.80;;;3.65;;
19384;SDS011;9828;54.122;17.974;2023-08-12T05:49:15;6.22;;;3.45;;
19384;SDS011;9828;54.122;17.974;2023-08-12T05:54:37;6.50;;;3.53;;
19384;SDS011;9828;54.122;17.974;2023-08-12T05:59:58;7.72;;;4.43;;
19384;SDS011;9828;54.122;17.974;2023-08-12T06:05:19;9.50;;;4.70;;
19384;SDS011;9828;54.122;17.974;2023-08-12T06:10:40;7.82;;;4.25;;
19384;SDS011;9828;54.122;17.974;2023-08-12T06:16:02;7.63;;;3.88;;
19384;SDS011;9828;54.122;17.974;2023-08-12T06:21:23;9.65;;;3.95;;
19384;SDS011;9828;54.122;17.974;2023-08-12T06:26:44;6.05;;;3.58;;
19384;SDS011;9828;54.122;17.974;2023-08-12T06:32:06;7.50;;;3.30;;
19384;SDS011;9828;54.122;17.974;2023-08-12T06:37:27;8.38;;;3.85;;
19384;SDS011;9828;54.122;17.974;2023-08-12T06:42:48;4.95;;;3.08;;
19384;SDS011;9828;54.122;17.974;2023-08-12T06:48:10;5.40;;;2.83;;
19384;SDS011;9828;54.122;17.974;2023-08-12T06:53:31;4.60;;;3.28;;
19384;SDS011;9828;54.122;17.974;2023-08-12T06:58:52;6.40;;;3.25;;
19384;SDS011;9828;54.122;17.974;2023-08-12T07:04:14;6.65;;;3.13;;
19384;SDS011;9828;54.122;17.974;2023-08-12T07:09:35;3.97;;;3.10;;
19384;SDS011;9828;54.122;17.974;2023-08-12T07:14:56;8.43;;;2.95;;
19384;SDS011;9828;54.122;17.974;2023-08-12T07:20:18;8.80;;;3.42;;
19384;SDS011;9828;54.122;17.974;2023-08-12T07:25:39;15.13;;;6.38;;
19384;SDS011;9828;54.122;17.974;2023-08-12T07:31:01;7.32;;;4.40;;
19384;SDS011;9828;54.122;17.974;2023-08-12T07:36:22;6.28;;;3.97;;
19384;SDS011;9828;54.122;17.974;2023-08-12T07:41:43;5.75;;;3.08;;
19384;SDS011;9828;54.122;17.974;2023-08-12T07:47:05;10.38;;;3.38;;
19384;SDS011;9828;54.122;17.974;2023-08-12T07:52:26;7.95;;;3.38;;
19384;SDS011;9828;54.122;17.974;2023-08-12T07:57:47;6.90;;;3.80;;
19384;SDS011;9828;54.122;17.974;2023-08-12T08:03:09;7.45;;;2.90;;
19384;SDS011;9828;54.122;17.974;2023-08-12T08:08:31;7.43;;;3.40;;
19384;SDS011;9828;54.122;17.974;2023-08-12T08:13:52;12.40;;;3.10;;
19384;SDS011;9828;54.122;17.974;2023-08-12T08:19:13;4.75;;;2.55;;
19384;SDS011;9828;54.122;17.974;2023-08-12T08:24:34;5.85;;;3.05;;
19384;SDS011;9828;54.122;17.974;2023-08-12T08:29:56;7.95;;;2.65;;
19384;SDS011;9828;54.122;17.974;2023-08-12T08:35:18;7.10;;;2.85;;
19384;SDS011;9828;54.122;17.974;2023-08-12T08:40:39;5.35;;;2.50;;
19384;SDS011;9828;54.122;17.974;2023-08-12T08:46:01;4.03;;;2.63;;
19384;SDS011;9828;54.122;17.974;2023-08-12T08:51:23;11.02;;;2.35;;
19384;SDS011;9828;54.122;17.974;2023-08-12T08:56:46;5.43;;;2.45;;
19384;SDS011;9828;54.122;17.974;2023-08-12T09:02:16;7.40;;;3.05;;
19384;SDS011;9828;54.122;17.974;2023-08-12T09:07:38;6.45;;;2.70;;
19384;SDS011;9828;54.122;17.974;2023-08-12T09:13:00;3.40;;;2.50;;
19384;SDS011;9828;54.122;17.974;2023-08-12T09:18:22;3.63;;;2.15;;
19384;SDS011;9828;54.122;17.974;2023-08-12T09:23:44;4.22;;;2.08;;
19384;SDS011;9828;54.122;17.974;2023-08-12T09:29:06;3.25;;;1.90;;
19384;SDS011;9828;54.122;17.974;2023-08-12T09:34:27;9.18;;;2.58;;
19384;SDS011;9828;54.122;17.974;2023-08-12T09:39:49;5.32;;;2.60;;
19384;SDS011;9828;54.122;17.974;2023-08-12T09:45:11;5.80;;;2.15;;
19384;SDS011;9828;54.122;17.974;2023-08-12T09:50:32;6.72;;;2.72;;
19384;SDS011;9828;54.122;17.974;2023-08-12T09:55:56;2.88;;;1.73;;
19384;SDS011;9828;54.122;17.974;2023-08-12T10:01:26;4.90;;;2.95;;
19384;SDS011;9828;54.122;17.974;2023-08-12T10:06:48;9.98;;;2.65;;
19384;SDS011;9828;54.122;17.974;2023-08-12T10:12:10;4.90;;;2.65;;
19384;SDS011;9828;54.122;17.974;2023-08-12T10:17:34;6.50;;;2.25;;
19384;SDS011;9828;54.122;17.974;2023-08-12T10:23:01;6.55;;;3.20;;
19384;SDS011;9828;54.122;17.974;2023-08-12T10:28:23;7.35;;;2.35;;
19384;SDS011;9828;54.122;17.974;2023-08-12T10:33:45;8.60;;;2.72;;
19384;SDS011;9828;54.122;17.974;2023-08-12T10:39:10;4.53;;;2.95;;
19384;SDS011;9828;54.122;17.974;2023-08-12T10:44:38;4.75;;;1.90;;
19384;SDS011;9828;54.122;17.974;2023-08-12T10:50:19;10.60;;;2.40;;
19384;SDS011;9828;54.122;17.974;2023-08-12T10:55:41;7.68;;;3.03;;
19384;SDS011;9828;54.122;17.974;2023-08-12T11:01:02;7.95;;;2.65;;
19384;SDS011;9828;54.122;17.974;2023-08-12T11:06:29;4.10;;;2.20;;
19384;SDS011;9828;54.122;17.974;2023-08-12T11:11:56;3.40;;;2.35;;
19384;SDS011;9828;54.122;17.974;2023-08-12T11:17:19;3.22;;;1.90;;
19384;SDS011;9828;54.122;17.974;2023-08-12T11:22:47;6.18;;;2.08;;
19384;SDS011;9828;54.122;17.974;2023-08-12T11:28:10;12.98;;;2.83;;
19384;SDS011;9828;54.122;17.974;2023-08-12T11:33:32;4.78;;;2.03;;
19384;SDS011;9828;54.122;17.974;2023-08-12T11:38:53;2.40;;;1.60;;
19384;SDS011;9828;54.122;17.974;2023-08-12T11:44:15;9.05;;;1.90;;
19384;SDS011;9828;54.122;17.974;2023-08-12T11:49:36;4.75;;;2.13;;
19384;SDS011;9828;54.122;17.974;2023-08-12T11:54:58;3.72;;;1.90;;
19384;SDS011;9828;54.122;17.974;2023-08-12T12:00:19;3.00;;;1.70;;
19384;SDS011;9828;54.122;17.974;2023-08-12T12:05:41;3.58;;;1.98;;
19384;SDS011;9828;54.122;17.974;2023-08-12T12:11:06;4.95;;;1.83;;
19384;SDS011;9828;54.122;17.974;2023-08-12T12:16:36;6.70;;;2.53;;
19384;SDS011;9828;54.122;17.974;2023-08-12T12:22:04;3.40;;;2.25;;
19384;SDS011;9828;54.122;17.974;2023-08-12T12:27:26;4.85;;;2.20;;
19384;SDS011;9828;54.122;17.974;2023-08-12T12:32:48;5.70;;;2.20;;
19384;SDS011;9828;54.122;17.974;2023-08-12T12:38:09;2.72;;;1.73;;
19384;SDS011;9828;54.122;17.974;2023-08-12T12:43:30;5.75;;;2.00;;
19384;SDS011;9828;54.122;17.974;2023-08-12T12:55:01;4.50;;;2.20;;
19384;SDS011;9828;54.122;17.974;2023-08-12T13:00:24;3.78;;;2.50;;
19384;SDS011;9828;54.122;17.974;2023-08-12T13:05:46;4.78;;;2.08;;
19384;SDS011;9828;54.122;17.974;2023-08-12T13:11:07;5.07;;;2.13;;
19384;SDS011;9828;54.122;17.974;2023-08-12T13:16:29;2.95;;;2.38;;
19384;SDS011;9828;54.122;17.974;2023-08-12T13:21:50;3.80;;;2.75;;
19384;SDS011;9828;54.122;17.974;2023-08-12T13:27:12;11.50;;;5.75;;
19384;SDS011;9828;54.122;17.974;2023-08-12T13:32:34;26.40;;;7.32;;
19384;SDS011;9828;54.122;17.974;2023-08-12T13:37:55;10.55;;;6.03;;
19384;SDS011;9828;54.122;17.974;2023-08-12T13:43:16;11.05;;;4.90;;
19384;SDS011;9828;54.122;17.974;2023-08-12T13:48:38;17.67;;;5.88;;
19384;SDS011;9828;54.122;17.974;2023-08-12T13:53:59;11.88;;;6.90;;
19384;SDS011;9828;54.122;17.974;2023-08-12T13:59:20;12.02;;;4.93;;
19384;SDS011;9828;54.122;17.974;2023-08-12T14:04:41;15.18;;;3.80;;
19384;SDS011;9828;54.122;17.974;2023-08-12T14:10:03;4.00;;;2.47;;
19384;SDS011;9828;54.122;17.974;2023-08-12T14:15:25;12.35;;;6.40;;
19384;SDS011;9828;54.122;17.974;2023-08-12T14:20:46;24.02;;;13.07;;
19384;SDS011;9828;54.122;17.974;2023-08-12T14:26:07;9.63;;;5.35;;
19384;SDS011;9828;54.122;17.974;2023-08-12T14:31:29;7.40;;;4.40;;
19384;SDS011;9828;54.122;17.974;2023-08-12T14:36:50;14.73;;;6.75;;
19384;SDS011;9828;54.122;17.974;2023-08-12T14:42:11;7.55;;;3.58;;
19384;SDS011;9828;54.122;17.974;2023-08-12T14:47:33;6.22;;;3.58;;
19384;SDS011;9828;54.122;17.974;2023-08-12T14:52:54;14.48;;;6.90;;
19384;SDS011;9828;54.122;17.974;2023-08-12T14:58:16;5.18;;;3.28;;
19384;SDS011;9828;54.122;17.974;2023-08-12T15:03:37;6.32;;;3.70;;
19384;SDS011;9828;54.122;17.974;2023-08-12T15:08:59;9.50;;;4.82;;
19384;SDS011;9828;54.122;17.974;2023-08-12T15:14:20;9.88;;;4.90;;
19384;SDS011;9828;54.122;17.974;2023-08-12T15:19:42;8.55;;;4.15;;
19384;SDS011;9828;54.122;17.974;2023-08-12T15:25:03;6.43;;;3.38;;
19384;SDS011;9828;54.122;17.974;2023-08-12T15:30:25;6.78;;;2.95;;
19384;SDS011;9828;54.122;17.974;2023-08-12T15:35:46;10.55;;;2.92;;
19384;SDS011;9828;54.122;17.974;2023-08-12T15:41:12;6.63;;;3.70;;
19384;SDS011;9828;54.122;17.974;2023-08-12T15:46:34;5.93;;;3.42;;
19384;SDS011;9828;54.122;17.974;2023-08-12T15:51:55;6.00;;;3.47;;
19384;SDS011;9828;54.122;17.974;2023-08-12T15:57:16;5.70;;;3.22;;
19384;SDS011;9828;54.122;17.974;2023-08-12T16:02:38;5.07;;;2.30;;
19384;SDS011;9828;54.122;17.974;2023-08-12T16:07:59;5.40;;;2.72;;
19384;SDS011;9828;54.122;17.974;2023-08-12T16:19:24;7.15;;;2.63;;
19384;SDS011;9828;54.122;17.974;2023-08-12T16:24:45;3.97;;;2.00;;
19384;SDS011;9828;54.122;17.974;2023-08-12T16:30:06;4.20;;;2.30;;
19384;SDS011;9828;54.122;17.974;2023-08-12T16:35:29;4.18;;;2.08;;
19384;SDS011;9828;54.122;17.974;2023-08-12T16:40:50;5.75;;;2.95;;
19384;SDS011;9828;54.122;17.974;2023-08-12T16:46:12;3.60;;;2.42;;
19384;SDS011;9828;54.122;17.974;2023-08-12T16:51:33;5.80;;;3.10;;
19384;SDS011;9828;54.122;17.974;2023-08-12T16:56:55;4.30;;;3.10;;
19384;SDS011;9828;54.122;17.974;2023-08-12T17:02:16;4.32;;;3.00;;
19384;SDS011;9828;54.122;17.974;2023-08-12T17:07:37;6.30;;;3.58;;
19384;SDS011;9828;54.122;17.974;2023-08-12T17:12:58;7.13;;;3.58;;
19384;SDS011;9828;54.122;17.974;2023-08-12T17:18:20;7.40;;;3.20;;
19384;SDS011;9828;54.122;17.974;2023-08-12T17:23:41;3.80;;;2.83;;
19384;SDS011;9828;54.122;17.974;2023-08-12T17:29:02;6.95;;;2.47;;
19384;SDS011;9828;54.122;17.974;2023-08-12T17:34:24;4.32;;;2.60;;
19384;SDS011;9828;54.122;17.974;2023-08-12T17:39:45;3.35;;;2.78;;
19384;SDS011;9828;54.122;17.974;2023-08-12T17:45:07;4.70;;;3.10;;
19384;SDS011;9828;54.122;17.974;2023-08-12T17:50:29;5.10;;;4.55;;
19384;SDS011;9828;54.122;17.974;2023-08-12T17:55:50;7.60;;;4.60;;
19384;SDS011;9828;54.122;17.974;2023-08-12T18:01:12;4.10;;;3.70;;
19384;SDS011;9828;54.122;17.974;2023-08-12T18:06:33;10.70;;;3.72;;
19384;SDS011;9828;54.122;17.974;2023-08-12T18:11:54;5.60;;;4.10;;
19384;SDS011;9828;54.122;17.974;2023-08-12T18:17:15;4.53;;;3.40;;
19384;SDS011;9828;54.122;17.974;2023-08-12T18:22:37;12.98;;;4.57;;
19384;SDS011;9828;54.122;17.974;2023-08-12T18:27:58;8.75;;;4.47;;
19384;SDS011;9828;54.122;17.974;2023-08-12T18:33:20;10.45;;;5.15;;
19384;SDS011;9828;54.122;17.974;2023-08-12T18:38:41;18.25;;;11.02;;
19384;SDS011;9828;54.122;17.974;2023-08-12T18:44:02;20.67;;;10.80;;
19384;SDS011;9828;54.122;17.974;2023-08-12T18:49:23;18.05;;;9.30;;
19384;SDS011;9828;54.122;17.974;2023-08-12T18:54:45;17.38;;;9.02;;
19384;SDS011;9828;54.122;17.974;2023-08-12T19:00:06;13.00;;;8.82;;
19384;SDS011;9828;54.122;17.974;2023-08-12T19:05:28;23.35;;;9.68;;
19384;SDS011;9828;54.122;17.974;2023-08-12T19:10:56;10.77;;;7.22;;
19384;SDS011;9828;54.122;17.974;2023-08-12T19:16:17;13.57;;;8.15;;
19384;SDS011;9828;54.122;17.974;2023-08-12T19:21:39;10.00;;;6.78;;
19384;SDS011;9828;54.122;17.974;2023-08-12T19:27:00;10.88;;;7.05;;
19384;SDS011;9828;54.122;17.974;2023-08-12T19:32:21;19.50;;;8.98;;
19384;SDS011;9828;54.122;17.974;2023-08-12T19:37:42;19.98;;;9.95;;
19384;SDS011;9828;54.122;17.974;2023-08-12T19:43:04;14.27;;;9.13;;
19384;SDS011;9828;54.122;17.974;2023-08-12T19:48:25;13.68;;;7.30;;
19384;SDS011;9828;54.122;17.974;2023-08-12T19:53:46;10.77;;;7.18;;
19384;SDS011;9828;54.122;17.974;2023-08-12T19:59:08;13.98;;;8.65;;
19384;SDS011;9828;54.122;17.974;2023-08-12T20:04:30;12.77;;;7.63;;
19384;SDS011;9828;54.122;17.974;2023-08-12T20:09:51;16.15;;;9.15;;
19384;SDS011;9828;54.122;17.974;2023-08-12T20:15:12;14.35;;;8.68;;
19384;SDS011;9828;54.122;17.974;2023-08-12T20:20:34;14.73;;;7.85;;
19384;SDS011;9828;54.122;17.974;2023-08-12T20:25:55;13.27;;;7.75;;
19384;SDS011;9828;54.122;17.974;2023-08-12T20:31:16;12.68;;;7.43;;
19384;SDS011;9828;54.122;17.974;2023-08-12T20:36:37;14.60;;;7.95;;
19384;SDS011;9828;54.122;17.974;2023-08-12T20:42:02;12.95;;;7.13;;
19384;SDS011;9828;54.122;17.974;2023-08-12T20:47:26;11.55;;;6.10;;
19384;SDS011;9828;54.122;17.974;2023-08-12T20:52:47;7.07;;;5.18;;
19384;SDS011;9828;54.122;17.974;2023-08-12T20:58:09;9.77;;;5.47;;
19384;SDS011;9828;54.122;17.974;2023-08-12T21:03:30;8.38;;;5.22;;
19384;SDS011;9828;54.122;17.974;2023-08-12T21:08:52;9.40;;;5.53;;
19384;SDS011;9828;54.122;17.974;2023-08-12T21:14:13;7.72;;;4.80;;
19384;SDS011;9828;54.122;17.974;2023-08-12T21:19:34;6.18;;;4.53;;
19384;SDS011;9828;54.122;17.974;2023-08-12T21:24:56;7.63;;;4.90;;
19384;SDS011;9828;54.122;17.974;2023-08-12T21:30:17;8.90;;;4.70;;
19384;SDS011;9828;54.122;17.974;2023-08-12T21:35:39;9.15;;;5.30;;
19384;SDS011;9828;54.122;17.974;2023-08-12T21:41:00;11.32;;;5.45;;
19384;SDS011;9828;54.122;17.974;2023-08-12T21:46:21;6.57;;;4.85;;
19384;SDS011;9828;54.122;17.974;2023-08-12T21:51:43;7.80;;;4.40;;
19384;SDS011;9828;54.122;17.974;2023-08-12T21:57:04;6.72;;;4.90;;
19384;SDS011;9828;54.122;17.974;2023-08-12T22:02:26;6.82;;;5.00;;
19384;SDS011;9828;54.122;17.974;2023-08-12T22:07:48;7.63;;;5.20;;
19384;SDS011;9828;54.122;17.974;2023-08-12T22:13:09;8.57;;;5.22;;
19384;SDS011;9828;54.122;17.974;2023-08-12T22:18:30;8.88;;;5.30;;
19384;SDS011;9828;54.122;17.974;2023-08-12T22:23:52;9.23;;;5.80;;
19384;SDS011;9828;54.122;17.974;2023-08-12T22:29:13;9.13;;;6.07;;
19384;SDS011;9828;54.122;17.974;2023-08-12T22:34:35;11.05;;;6.35;;
19384;SDS011;9828;54.122;17.974;2023-08-12T22:39:56;11.00;;;6.97;;
19384;SDS011;9828;54.122;17.974;2023-08-12T22:45:17;10.60;;;6.68;;
19384;SDS011;9828;54.122;17.974;2023-08-12T22:50:38;9.73;;;6.72;;
19384;SDS011;9828;54.122;17.974;2023-08-12T22:56:00;12.75;;;7.93;;
19384;SDS011;9828;54.122;17.974;2023-08-12T23:01:21;13.80;;;7.97;;
19384;SDS011;9828;54.122;17.974;2023-08-12T23:06:42;16.38;;;8.93;;
19384;SDS011;9828;54.122;17.974;2023-08-12T23:12:04;13.13;;;8.82;;
19384;SDS011;9828;54.122;17.974;2023-08-12T23:17:26;12.75;;;7.80;;
19384;SDS011;9828;54.122;17.974;2023-08-12T23:22:47;16.52;;;9.95;;
19384;SDS011;9828;54.122;17.974;2023-08-12T23:28:08;11.07;;;7.68;;
19384;SDS011;9828;54.122;17.974;2023-08-12T23:33:32;10.77;;;7.38;;
19384;SDS011;9828;54.122;17.974;2023-08-12T23:38:55;13.02;;;7.03;;
19384;SDS011;9828;54.122;17.974;2023-08-12T23:44:17;10.75;;;6.65;;
19384;SDS011;9828;54.122;17.974;2023-08-12T23:49:38;9.45;;;6.97;;
19384;SDS011;9828;54.122;17.974;2023-08-12T23:54:59;10.40;;;7.05;;
